createdAt,value
2023-08-14T00:00:49.000Z,937.25
2023-08-14T00:01:48.991Z,937.31
2023-08-14T00:02:48.982Z,937.31
2023-08-14T00:03:48.984Z,937.30
2023-08-14T00:04:48.949Z,937.28
2023-08-14T00:05:48.938Z,937.29
2023-08-14T00:06:48.891Z,937.32
2023-08-14T00:07:48.916Z,937.30
2023-08-14T00:08:48.880Z,937.28
2023-08-14T00:09:48.885Z,937.26
2023-08-14T00:10:48.884Z,937.27
2023-08-14T00:11:48.866Z,937.21
2023-08-14T00:12:48.826Z,937.28
2023-08-14T00:13:48.875Z,937.25
2023-08-14T00:14:48.808Z,937.20
2023-08-14T00:15:48.861Z,937.19
2023-08-14T00:16:48.842Z,937.19
2023-08-14T00:17:48.860Z,937.21
2023-08-14T00:18:48.910Z,937.16
2023-08-14T00:19:48.753Z,937.16
2023-08-14T00:20:48.778Z,937.15
2023-08-14T00:21:48.773Z,937.12
2023-08-14T00:22:48.889Z,937.20
2023-08-14T00:23:48.740Z,937.26
2023-08-14T00:24:48.726Z,937.25
2023-08-14T00:25:48.745Z,937.20
2023-08-14T00:26:48.701Z,937.24
2023-08-14T00:27:48.663Z,937.23
2023-08-14T00:28:48.696Z,937.26
2023-08-14T00:29:48.642Z,937.25
2023-08-14T00:30:48.685Z,937.29
2023-08-14T00:31:48.616Z,937.36
2023-08-14T00:32:48.660Z,937.34
2023-08-14T00:33:48.612Z,937.38
2023-08-14T00:34:48.693Z,937.40
2023-08-14T00:35:48.675Z,937.42
2023-08-14T00:36:48.721Z,937.43
2023-08-14T00:37:48.632Z,937.44
2023-08-14T00:38:48.614Z,937.44
2023-08-14T00:39:48.531Z,937.45
2023-08-14T00:40:48.607Z,937.42
2023-08-14T00:41:48.589Z,937.37
2023-08-14T00:42:48.536Z,937.33
2023-08-14T00:43:48.502Z,937.34
2023-08-14T00:44:48.502Z,937.27
2023-08-14T00:45:48.452Z,937.27
2023-08-14T00:46:48.548Z,937.27
2023-08-14T00:47:48.513Z,937.26
2023-08-14T00:48:48.474Z,937.22
2023-08-14T00:49:48.408Z,937.23
2023-08-14T00:50:48.438Z,937.17
2023-08-14T00:51:48.427Z,937.23
2023-08-14T00:52:48.658Z,937.23
2023-08-14T00:53:48.378Z,937.29
2023-08-14T00:54:48.394Z,937.33
2023-08-14T00:55:48.433Z,937.36
2023-08-14T00:56:48.361Z,937.38
2023-08-14T00:57:48.314Z,937.34
2023-08-14T00:58:48.344Z,937.38
2023-08-14T00:59:48.330Z,937.37
2023-08-14T01:00:48.355Z,937.39
2023-08-14T01:01:48.288Z,937.36
2023-08-14T01:02:48.323Z,937.38
2023-08-14T01:03:48.292Z,937.41
2023-08-14T01:04:48.279Z,937.43
2023-08-14T01:05:48.249Z,937.38
2023-08-14T01:06:48.248Z,937.42
2023-08-14T01:07:48.212Z,937.44
2023-08-14T01:08:48.276Z,937.48
2023-08-14T01:09:48.186Z,937.51
2023-08-14T01:10:48.269Z,937.56
2023-08-14T01:11:48.167Z,937.56
2023-08-14T01:12:48.177Z,937.60
2023-08-14T01:13:48.152Z,937.61
2023-08-14T01:14:48.176Z,937.65
2023-08-14T01:15:48.128Z,937.65
2023-08-14T01:16:48.303Z,937.65
2023-08-14T01:17:48.183Z,937.65
2023-08-14T01:18:48.131Z,937.61
2023-08-14T01:19:48.071Z,937.59
2023-08-14T01:20:48.092Z,937.63
2023-08-14T01:21:48.067Z,937.68
2023-08-14T01:22:48.078Z,937.69
2023-08-14T01:23:48.046Z,937.70
2023-08-14T01:24:48.042Z,937.72
2023-08-14T01:25:48.009Z,937.71
2023-08-14T01:26:48.038Z,937.70
2023-08-14T01:27:47.988Z,937.74
2023-08-14T01:28:48.012Z,937.70
2023-08-14T01:29:48.012Z,937.67
2023-08-14T01:30:48.002Z,937.66
2023-08-14T01:31:48.034Z,937.60
2023-08-14T01:32:47.975Z,937.61
2023-08-14T01:33:47.935Z,937.61
2023-08-14T01:34:47.946Z,937.57
2023-08-14T01:35:47.947Z,937.60
2023-08-14T01:36:47.936Z,937.59
2023-08-14T01:37:47.889Z,937.60
2023-08-14T01:38:47.977Z,937.59
2023-08-14T01:39:47.889Z,937.58
2023-08-14T01:40:47.947Z,937.61
2023-08-14T01:41:47.838Z,937.61
2023-08-14T01:42:47.866Z,937.59
2023-08-14T01:43:47.815Z,937.63
2023-08-14T01:44:47.812Z,937.61
2023-08-14T01:45:47.931Z,937.58
2023-08-14T01:46:47.812Z,937.62
2023-08-14T01:47:47.796Z,937.61
2023-08-14T01:48:47.778Z,937.59
2023-08-14T01:49:47.744Z,937.56
2023-08-14T01:50:47.748Z,937.54
2023-08-14T01:51:47.729Z,937.57
2023-08-14T01:52:47.731Z,937.56
2023-08-14T01:53:47.699Z,937.51
2023-08-14T01:54:47.718Z,937.55
2023-08-14T01:55:47.682Z,937.52
2023-08-14T01:56:47.746Z,937.53
2023-08-14T01:57:47.674Z,937.55
2023-08-14T01:58:47.668Z,937.57
2023-08-14T01:59:47.772Z,937.59
2023-08-14T02:00:47.700Z,937.53
2023-08-14T02:01:47.634Z,937.55
2023-08-14T02:02:47.670Z,937.53
2023-08-14T02:03:47.801Z,937.48
2023-08-14T02:04:47.713Z,937.53
2023-08-14T02:05:47.562Z,937.49
2023-08-14T02:06:47.561Z,937.49
2023-08-14T02:07:47.646Z,937.50
2023-08-14T02:08:47.550Z,937.48
2023-08-14T02:09:47.523Z,937.46
2023-08-14T02:10:47.857Z,937.48
2023-08-14T02:11:47.570Z,937.44
2023-08-14T02:12:47.511Z,937.42
2023-08-14T02:13:47.471Z,937.40
2023-08-14T02:14:47.594Z,937.39
2023-08-14T02:15:47.655Z,937.38
2023-08-14T02:16:47.470Z,937.40
2023-08-14T02:17:47.616Z,937.43
2023-08-14T02:18:47.514Z,937.43
2023-08-14T02:19:47.416Z,937.43
2023-08-14T02:20:47.438Z,937.42
2023-08-14T02:21:47.529Z,937.41
2023-08-14T02:22:47.438Z,937.42
2023-08-14T02:23:47.382Z,937.40
2023-08-14T02:24:47.368Z,937.41
2023-08-14T02:25:47.449Z,937.37
2023-08-14T02:26:47.358Z,937.34
2023-08-14T02:27:47.371Z,937.37
2023-08-14T02:28:47.911Z,937.31
2023-08-14T02:29:47.300Z,937.29
2023-08-14T02:30:47.319Z,937.26
2023-08-14T02:31:47.505Z,937.20
2023-08-14T02:32:47.463Z,937.14
2023-08-14T02:33:47.302Z,937.17
2023-08-14T02:34:47.478Z,937.13
2023-08-14T02:35:47.414Z,937.12
2023-08-14T02:36:47.240Z,937.14
2023-08-14T02:37:47.207Z,937.14
2023-08-14T02:38:47.231Z,937.13
2023-08-14T02:39:47.237Z,937.17
2023-08-14T02:40:47.216Z,937.16
2023-08-14T02:41:47.155Z,937.17
2023-08-14T02:42:47.198Z,937.18
2023-08-14T02:43:47.138Z,937.17
2023-08-14T02:44:47.166Z,937.21
2023-08-14T02:45:47.178Z,937.17
2023-08-14T02:46:47.291Z,937.15
2023-08-14T02:47:47.117Z,937.17
2023-08-14T02:48:47.114Z,937.13
2023-08-14T02:49:47.060Z,937.19
2023-08-14T02:50:47.121Z,937.12
2023-08-14T02:51:47.040Z,937.13
2023-08-14T02:52:47.210Z,937.13
2023-08-14T02:53:47.023Z,937.14
2023-08-14T02:54:47.138Z,937.11
2023-08-14T02:55:46.993Z,937.11
2023-08-14T02:56:47.020Z,937.12
2023-08-14T02:57:47.249Z,937.07
2023-08-14T02:58:46.993Z,937.04
2023-08-14T02:59:46.999Z,937.06
2023-08-14T03:00:46.998Z,937.04
2023-08-14T03:01:47.165Z,936.96
2023-08-14T03:02:47.053Z,936.97
2023-08-14T03:03:46.909Z,937.01
2023-08-14T03:04:47.182Z,936.95
2023-08-14T03:05:46.948Z,936.95
2023-08-14T03:06:46.885Z,936.98
2023-08-14T03:07:46.906Z,936.88
2023-08-14T03:08:46.869Z,936.91
2023-08-14T03:09:46.838Z,936.94
2023-08-14T03:10:46.980Z,936.91
2023-08-14T03:11:46.809Z,936.91
2023-08-14T03:12:46.834Z,936.89
2023-08-14T03:13:46.791Z,936.90
2023-08-14T03:14:46.848Z,936.88
2023-08-14T03:15:46.777Z,936.90
2023-08-14T03:16:46.971Z,936.89
2023-08-14T03:17:46.784Z,936.88
2023-08-14T03:18:46.765Z,936.87
2023-08-14T03:19:47.027Z,936.89
2023-08-14T03:20:46.750Z,936.87
2023-08-14T03:21:46.781Z,936.91
2023-08-14T03:22:46.998Z,936.83
2023-08-14T03:23:46.696Z,936.89
2023-08-14T03:24:46.713Z,936.89
2023-08-14T03:25:46.665Z,936.90
2023-08-14T03:26:46.923Z,936.90
2023-08-14T03:27:46.663Z,936.87
2023-08-14T03:28:46.661Z,936.86
2023-08-14T03:29:46.622Z,936.87
2023-08-14T03:30:46.675Z,936.88
2023-08-14T03:31:46.640Z,936.86
2023-08-14T03:32:46.682Z,936.86
2023-08-14T03:33:46.578Z,936.84
2023-08-14T03:34:46.725Z,936.88
2023-08-14T03:35:46.571Z,936.85
2023-08-14T03:36:46.558Z,936.84
2023-08-14T03:37:46.522Z,936.84
2023-08-14T03:38:46.694Z,936.79
2023-08-14T03:39:46.498Z,936.81
2023-08-14T03:40:46.536Z,936.76
2023-08-14T03:41:46.500Z,936.76
2023-08-14T03:42:46.493Z,936.71
2023-08-14T03:43:46.466Z,936.70
2023-08-14T03:44:46.826Z,936.70
2023-08-14T03:45:46.441Z,936.64
2023-08-14T03:46:46.542Z,936.66
2023-08-14T03:47:46.481Z,936.63
2023-08-14T03:48:46.655Z,936.61
2023-08-14T03:49:46.390Z,936.61
2023-08-14T03:50:46.404Z,936.60
2023-08-14T03:51:46.379Z,936.60
2023-08-14T03:52:46.392Z,936.59
2023-08-14T03:53:46.350Z,936.56
2023-08-14T03:54:46.370Z,936.53
2023-08-14T03:55:46.336Z,936.56
2023-08-14T03:56:46.354Z,936.52
2023-08-14T03:57:46.316Z,936.56
2023-08-14T03:58:46.332Z,936.51
2023-08-14T03:59:48.207Z,936.49
2023-08-14T04:00:46.289Z,936.48
2023-08-14T04:01:46.326Z,936.47
2023-08-14T04:02:46.312Z,936.45
2023-08-14T04:03:46.379Z,936.43
2023-08-14T04:04:46.256Z,936.36
2023-08-14T04:05:46.217Z,936.39
2023-08-14T04:06:46.265Z,936.37
2023-08-14T04:07:46.194Z,936.40
2023-08-14T04:08:46.200Z,936.38
2023-08-14T04:09:46.192Z,936.40
2023-08-14T04:10:46.384Z,936.41
2023-08-14T04:11:46.148Z,936.39
2023-08-14T04:12:46.158Z,936.39
2023-08-14T04:13:46.120Z,936.38
2023-08-14T04:14:46.235Z,936.35
2023-08-14T04:15:46.104Z,936.33
2023-08-14T04:16:46.207Z,936.34
2023-08-14T04:17:46.176Z,936.32
2023-08-14T04:18:46.087Z,936.30
2023-08-14T04:19:46.066Z,936.29
2023-08-14T04:20:46.064Z,936.25
2023-08-14T04:21:46.030Z,936.34
2023-08-14T04:22:46.076Z,936.31
2023-08-14T04:23:46.006Z,936.29
2023-08-14T04:24:46.021Z,936.26
2023-08-14T04:25:45.998Z,936.24
2023-08-14T04:26:46.000Z,936.21
2023-08-14T04:27:45.987Z,936.25
2023-08-14T04:28:46.347Z,936.23
2023-08-14T04:29:45.968Z,936.23
2023-08-14T04:30:45.939Z,936.19
2023-08-14T04:31:45.998Z,936.18
2023-08-14T04:32:45.928Z,936.17
2023-08-14T04:33:45.926Z,936.15
2023-08-14T04:34:45.893Z,936.18
2023-08-14T04:35:45.921Z,936.16
2023-08-14T04:36:45.873Z,936.13
2023-08-14T04:37:45.879Z,936.10
2023-08-14T04:38:45.834Z,936.08
2023-08-14T04:39:45.859Z,936.04
2023-08-14T04:40:45.831Z,936.02
2023-08-14T04:41:45.878Z,936.03
2023-08-14T04:42:45.796Z,936.04
2023-08-14T04:43:45.821Z,936.05
2023-08-14T04:44:45.774Z,936.04
2023-08-14T04:45:45.823Z,936.05
2023-08-14T04:46:59.078Z,936.03
2023-08-14T04:47:45.782Z,936.03
2023-08-14T04:48:45.728Z,936.04
2023-08-14T04:49:45.746Z,936.05
2023-08-14T04:50:45.922Z,936.00
2023-08-14T04:51:45.717Z,936.01
2023-08-14T04:52:45.815Z,936.02
2023-08-14T04:53:45.693Z,936.06
2023-08-14T04:54:45.716Z,936.03
2023-08-14T04:55:45.680Z,936.03
2023-08-14T04:56:45.636Z,936.05
2023-08-14T04:57:45.651Z,936.04
2023-08-14T04:58:45.627Z,935.98
2023-08-14T04:59:45.634Z,936.01
2023-08-14T05:00:45.629Z,935.98
2023-08-14T05:01:45.677Z,935.94
2023-08-14T05:02:45.612Z,935.95
2023-08-14T05:03:45.594Z,935.92
2023-08-14T05:04:45.628Z,935.91
2023-08-14T05:05:45.566Z,935.91
2023-08-14T05:06:45.523Z,935.90
2023-08-14T05:07:45.552Z,935.87
2023-08-14T05:08:45.517Z,935.90
2023-08-14T05:09:45.520Z,935.87
2023-08-14T05:10:45.493Z,935.86
2023-08-14T05:11:45.494Z,935.84
2023-08-14T05:12:45.464Z,935.84
2023-08-14T05:13:45.513Z,935.80
2023-08-14T05:14:45.432Z,935.81
2023-08-14T05:15:48.761Z,935.80
2023-08-14T05:16:45.482Z,935.81
2023-08-14T05:17:45.458Z,935.78
2023-08-14T05:18:45.394Z,935.75
2023-08-14T05:19:45.410Z,935.74
2023-08-14T05:20:45.366Z,935.72
2023-08-14T05:21:45.385Z,935.70
2023-08-14T05:22:45.360Z,935.69
2023-08-14T05:23:45.363Z,935.71
2023-08-14T05:24:45.333Z,935.81
2023-08-14T05:25:45.353Z,935.71
2023-08-14T05:26:45.321Z,935.68
2023-08-14T05:27:45.310Z,935.67
2023-08-14T05:28:45.320Z,935.66
2023-08-14T05:29:45.325Z,935.64
2023-08-14T05:30:45.252Z,935.66
2023-08-14T05:31:45.343Z,935.70
2023-08-14T05:32:45.350Z,935.71
2023-08-14T05:33:45.250Z,935.69
2023-08-14T05:34:45.223Z,935.68
2023-08-14T05:35:45.232Z,935.67
2023-08-14T05:36:45.196Z,935.65
2023-08-14T05:37:45.245Z,935.66
2023-08-14T05:38:45.228Z,935.66
2023-08-14T05:39:47.120Z,935.62
2023-08-14T05:40:45.408Z,935.64
2023-08-14T05:41:45.230Z,935.63
2023-08-14T05:42:45.230Z,935.60
2023-08-14T05:43:45.136Z,935.60
2023-08-14T05:44:45.098Z,935.58
2023-08-14T05:45:45.140Z,935.53
2023-08-14T05:46:48.106Z,935.55
2023-08-14T05:47:45.187Z,935.54
2023-08-14T05:48:45.055Z,935.51
2023-08-14T05:49:45.131Z,935.48
2023-08-14T05:50:45.032Z,935.49
2023-08-14T05:51:45.041Z,935.53
2023-08-14T05:52:45.441Z,935.46
2023-08-14T05:53:45.113Z,935.46
2023-08-14T05:54:44.986Z,935.56
2023-08-14T05:55:44.995Z,935.54
2023-08-14T05:56:44.988Z,935.56
2023-08-14T05:57:45.022Z,935.55
2023-08-14T05:58:45.011Z,935.53
2023-08-14T05:59:45.724Z,935.55
2023-08-14T06:00:44.964Z,935.57
2023-08-14T06:01:44.947Z,935.58
2023-08-14T06:02:44.960Z,935.51
2023-08-14T06:03:45.925Z,935.54
2023-08-14T06:04:44.949Z,935.47
2023-08-14T06:05:44.890Z,935.40
2023-08-14T06:06:44.856Z,935.42
2023-08-14T06:07:44.926Z,935.40
2023-08-14T06:08:44.824Z,935.39
2023-08-14T06:09:44.910Z,935.31
2023-08-14T06:10:44.868Z,935.36
2023-08-14T06:11:44.863Z,935.35
2023-08-14T06:12:44.791Z,935.33
2023-08-14T06:13:44.841Z,935.33
2023-08-14T06:14:44.766Z,935.34
2023-08-14T06:15:44.768Z,935.31
2023-08-14T06:16:44.833Z,935.26
2023-08-14T06:17:44.773Z,935.29
2023-08-14T06:18:45.355Z,935.32
2023-08-14T06:19:44.792Z,935.30
2023-08-14T06:20:44.683Z,935.29
2023-08-14T06:21:44.767Z,935.24
2023-08-14T06:22:44.692Z,935.24
2023-08-14T06:23:44.703Z,935.26
2023-08-14T06:24:44.704Z,935.29
2023-08-14T06:25:44.793Z,935.25
2023-08-14T06:26:44.638Z,935.27
2023-08-14T06:27:44.639Z,935.24
2023-08-14T06:28:44.617Z,935.27
2023-08-14T06:29:44.617Z,935.26
2023-08-14T06:30:44.663Z,935.32
2023-08-14T06:31:44.658Z,935.30
2023-08-14T06:32:44.601Z,935.29
2023-08-14T06:33:44.625Z,935.32
2023-08-14T06:35:05.801Z,935.29
2023-08-14T06:35:44.594Z,935.31
2023-08-14T06:36:44.552Z,935.24
2023-08-14T06:37:44.893Z,935.28
2023-08-14T06:38:44.785Z,935.23
2023-08-14T06:39:44.698Z,935.20
2023-08-14T06:40:44.700Z,935.13
2023-08-14T06:41:44.578Z,935.14
2023-08-14T06:42:44.493Z,935.11
2023-08-14T06:43:44.610Z,935.10
2023-08-14T06:44:44.473Z,935.06
2023-08-14T06:45:44.723Z,935.12
2023-08-14T06:46:44.612Z,935.13
2023-08-14T06:47:44.604Z,935.15
2023-08-14T06:48:44.453Z,935.28
2023-08-14T06:49:44.453Z,935.21
2023-08-14T06:50:44.408Z,935.20
2023-08-14T06:51:44.413Z,935.20
2023-08-14T06:52:44.388Z,935.19
2023-08-14T06:53:44.412Z,935.24
2023-08-14T06:54:44.368Z,935.24
2023-08-14T06:55:44.377Z,935.28
2023-08-14T06:56:44.335Z,935.29
2023-08-14T06:57:44.391Z,935.33
2023-08-14T06:58:44.359Z,935.27
2023-08-14T06:59:46.732Z,935.27
2023-08-14T07:00:44.333Z,935.25
2023-08-14T07:01:44.318Z,935.22
2023-08-14T07:02:44.479Z,935.25
2023-08-14T07:03:44.351Z,935.23
2023-08-14T07:04:44.265Z,935.23
2023-08-14T07:05:44.294Z,935.24
2023-08-14T07:06:44.249Z,935.24
2023-08-14T07:07:44.272Z,935.26
2023-08-14T07:08:44.201Z,935.26
2023-08-14T07:09:44.252Z,935.27
2023-08-14T07:10:44.287Z,935.24
2023-08-14T07:11:44.193Z,935.25
2023-08-14T07:12:44.181Z,935.24
2023-08-14T07:13:45.754Z,935.26
2023-08-14T07:14:44.164Z,935.19
2023-08-14T07:15:44.177Z,935.24
2023-08-14T07:16:44.175Z,935.25
2023-08-14T07:17:44.207Z,935.25
2023-08-14T07:18:44.101Z,935.23
2023-08-14T07:19:44.102Z,935.19
2023-08-14T07:20:44.079Z,935.12
2023-08-14T07:21:44.113Z,935.09
2023-08-14T07:22:44.127Z,935.07
2023-08-14T07:23:44.053Z,935.08
2023-08-14T07:24:44.029Z,935.07
2023-08-14T07:25:44.852Z,935.04
2023-08-14T07:26:44.007Z,935.03
2023-08-14T07:27:44.036Z,935.03
2023-08-14T07:28:44.072Z,935.04
2023-08-14T07:29:45.147Z,934.96
2023-08-14T07:30:43.972Z,934.99
2023-08-14T07:31:43.972Z,934.99
2023-08-14T07:32:43.980Z,934.99
2023-08-14T07:33:43.951Z,935.00
2023-08-14T07:34:43.922Z,934.95
2023-08-14T07:35:43.929Z,934.99
2023-08-14T07:36:43.883Z,934.96
2023-08-14T07:37:43.921Z,934.94
2023-08-14T07:38:43.903Z,934.95
2023-08-14T07:39:43.879Z,934.95
2023-08-14T07:40:43.952Z,934.93
2023-08-14T07:41:43.840Z,934.92
2023-08-14T07:42:43.837Z,934.89
2023-08-14T07:43:43.853Z,934.90
2023-08-14T07:44:43.834Z,934.87
2023-08-14T07:45:43.815Z,934.91
2023-08-14T07:46:43.827Z,934.90
2023-08-14T07:47:43.829Z,934.92
2023-08-14T07:48:43.741Z,934.92
2023-08-14T07:49:43.753Z,934.92
2023-08-14T07:50:43.756Z,934.92
2023-08-14T07:51:43.738Z,934.91
2023-08-14T07:52:43.719Z,934.88
2023-08-14T07:53:43.716Z,934.92
2023-08-14T07:54:43.738Z,934.86
2023-08-14T07:55:43.700Z,934.83
2023-08-14T07:56:46.115Z,934.81
2023-08-14T07:57:43.714Z,934.84
2023-08-14T07:58:43.682Z,934.84
2023-08-14T07:59:43.642Z,934.89
2023-08-14T08:00:43.618Z,934.87
2023-08-14T08:01:43.645Z,934.86
2023-08-14T08:02:43.598Z,934.86
2023-08-14T08:03:43.637Z,934.88
2023-08-14T08:04:43.638Z,934.91
2023-08-14T08:05:43.682Z,934.85
2023-08-14T08:06:44.471Z,934.86
2023-08-14T08:07:43.576Z,934.83
2023-08-14T08:08:45.657Z,934.82
2023-08-14T08:09:43.570Z,934.79
2023-08-14T08:10:43.522Z,934.82
2023-08-14T08:11:43.552Z,934.81
2023-08-14T08:12:43.483Z,934.82
2023-08-14T08:13:43.485Z,934.85
2023-08-14T08:14:43.463Z,934.83
2023-08-14T08:15:43.498Z,934.81
2023-08-14T08:16:43.471Z,934.84
2023-08-14T08:17:43.495Z,934.85
2023-08-14T08:18:43.431Z,934.84
2023-08-14T08:19:43.468Z,934.87
2023-08-14T08:20:43.379Z,934.80
2023-08-14T08:21:43.394Z,934.83
2023-08-14T08:22:43.407Z,934.79
2023-08-14T08:23:43.408Z,934.79
2023-08-14T08:24:43.332Z,934.77
2023-08-14T08:25:43.361Z,934.78
2023-08-14T08:26:43.313Z,934.76
2023-08-14T08:27:43.354Z,934.72
2023-08-14T08:28:43.332Z,934.73
2023-08-14T08:29:43.293Z,934.72
2023-08-14T08:30:43.268Z,934.68
2023-08-14T08:31:43.359Z,934.70
2023-08-14T08:32:44.046Z,934.75
2023-08-14T08:33:43.256Z,934.76
2023-08-14T08:34:43.231Z,934.73
2023-08-14T08:35:43.229Z,934.78
2023-08-14T08:36:43.225Z,934.73
2023-08-14T08:37:43.263Z,934.77
2023-08-14T08:38:43.259Z,934.80
2023-08-14T08:39:43.202Z,934.84
2023-08-14T08:40:43.218Z,934.88
2023-08-14T08:41:43.174Z,934.86
2023-08-14T08:42:43.160Z,934.90
2023-08-14T08:43:43.126Z,934.89
2023-08-14T08:44:43.126Z,934.84
2023-08-14T08:45:43.105Z,934.87
2023-08-14T08:46:44.268Z,934.81
2023-08-14T08:47:43.142Z,934.84
2023-08-14T08:48:43.226Z,934.83
2023-08-14T08:49:44.276Z,934.84
2023-08-14T08:50:45.694Z,934.84
2023-08-14T08:51:43.081Z,934.83
2023-08-14T08:52:43.165Z,934.87
2023-08-14T08:53:43.039Z,934.87
2023-08-14T08:54:43.012Z,934.89
2023-08-14T08:55:42.993Z,934.89
2023-08-14T08:56:43.016Z,934.90
2023-08-14T08:57:42.996Z,934.96
2023-08-14T08:58:43.065Z,934.99
2023-08-14T08:59:42.938Z,935.03
2023-08-14T09:00:42.959Z,935.05
2023-08-14T09:01:43.000Z,935.03
2023-08-14T09:02:42.967Z,935.08
2023-08-14T09:03:43.054Z,935.05
2023-08-14T09:04:43.024Z,935.01
2023-08-14T09:05:42.874Z,935.07
2023-08-14T09:06:42.913Z,935.15
2023-08-14T09:07:42.872Z,935.12
2023-08-14T09:08:43.584Z,935.14
2023-08-14T09:09:42.846Z,935.16
2023-08-14T09:10:42.854Z,935.18
2023-08-14T09:11:42.847Z,935.21
2023-08-14T09:12:42.861Z,935.27
2023-08-14T09:13:42.777Z,935.29
2023-08-14T09:14:42.793Z,935.29
2023-08-14T09:15:42.783Z,935.32
2023-08-14T09:16:42.782Z,935.31
2023-08-14T09:17:42.800Z,935.32
2023-08-14T09:18:42.783Z,935.35
2023-08-14T09:19:42.714Z,935.37
2023-08-14T09:20:42.730Z,935.36
2023-08-14T09:21:42.737Z,935.40
2023-08-14T09:22:42.738Z,935.36
2023-08-14T09:23:42.711Z,935.39
2023-08-14T09:24:42.700Z,935.38
2023-08-14T09:25:43.349Z,935.37
2023-08-14T09:26:43.419Z,935.33
2023-08-14T09:27:42.623Z,935.35
2023-08-14T09:28:42.678Z,935.44
2023-08-14T09:29:42.655Z,935.38
2023-08-14T09:30:42.614Z,935.42
2023-08-14T09:31:42.608Z,935.41
2023-08-14T09:32:42.669Z,935.40
2023-08-14T09:33:42.592Z,935.44
2023-08-14T09:34:42.581Z,935.46
2023-08-14T09:35:42.584Z,935.47
2023-08-14T09:36:42.544Z,935.49
2023-08-14T09:37:42.549Z,935.51
2023-08-14T09:38:42.564Z,935.51
2023-08-14T09:39:42.487Z,935.52
2023-08-14T09:40:42.508Z,935.60
2023-08-14T09:41:42.471Z,935.60
2023-08-14T09:42:42.493Z,935.62
2023-08-14T09:43:42.449Z,935.60
2023-08-14T09:44:42.453Z,935.60
2023-08-14T09:45:42.451Z,935.56
2023-08-14T09:46:42.534Z,935.56
2023-08-14T09:47:42.534Z,935.57
2023-08-14T09:48:42.504Z,935.58
2023-08-14T09:49:42.384Z,935.58
2023-08-14T09:50:42.422Z,935.58
2023-08-14T09:51:42.363Z,935.57
2023-08-14T09:52:42.370Z,935.59
2023-08-14T09:53:42.359Z,935.58
2023-08-14T09:54:42.386Z,935.61
2023-08-14T09:55:42.311Z,935.62
2023-08-14T09:56:42.317Z,935.64
2023-08-14T09:57:42.291Z,935.63
2023-08-14T09:58:42.532Z,935.63
2023-08-14T09:59:42.295Z,935.63
2023-08-14T10:00:42.383Z,935.61
2023-08-14T10:01:42.234Z,935.62
2023-08-14T10:02:42.467Z,935.62
2023-08-14T10:03:42.251Z,935.68
2023-08-14T10:04:42.263Z,935.69
2023-08-14T10:05:42.235Z,935.70
2023-08-14T10:06:42.235Z,935.70
2023-08-14T10:07:42.198Z,935.75
2023-08-14T10:08:42.186Z,935.75
2023-08-14T10:09:42.154Z,935.75
2023-08-14T10:10:44.949Z,935.79
2023-08-14T10:11:43.057Z,935.75
2023-08-14T10:12:42.161Z,935.80
2023-08-14T10:13:42.202Z,935.81
2023-08-14T10:14:42.134Z,935.80
2023-08-14T10:15:42.102Z,935.83
2023-08-14T10:16:42.122Z,935.84
2023-08-14T10:17:42.113Z,935.82
2023-08-14T10:18:42.133Z,935.88
2023-08-14T10:19:42.031Z,935.80
2023-08-14T10:20:42.051Z,935.85
2023-08-14T10:21:42.051Z,935.82
2023-08-14T10:22:42.040Z,935.85
2023-08-14T10:23:42.016Z,935.85
2023-08-14T10:24:42.011Z,935.80
2023-08-14T10:25:41.962Z,935.83
2023-08-14T10:26:41.984Z,935.83
2023-08-14T10:27:41.980Z,935.86
2023-08-14T10:28:41.998Z,935.86
2023-08-14T10:29:41.962Z,935.90
2023-08-14T10:30:41.995Z,935.88
2023-08-14T10:31:41.908Z,935.91
2023-08-14T10:32:41.925Z,935.89
2023-08-14T10:33:41.877Z,935.89
2023-08-14T10:34:41.971Z,935.91
2023-08-14T10:35:41.851Z,935.96
2023-08-14T10:36:41.883Z,935.92
2023-08-14T10:37:41.848Z,935.92
2023-08-14T10:38:41.851Z,935.94
2023-08-14T10:39:41.863Z,935.94
2023-08-14T10:40:42.614Z,935.95
2023-08-14T10:41:41.778Z,935.96
2023-08-14T10:42:41.792Z,935.97
2023-08-14T10:43:41.804Z,935.93
2023-08-14T10:44:41.805Z,935.91
2023-08-14T10:45:41.738Z,935.91
2023-08-14T10:46:41.969Z,935.98
2023-08-14T10:47:41.794Z,936.00
2023-08-14T10:48:41.771Z,936.01
2023-08-14T10:49:41.697Z,936.00
2023-08-14T10:50:41.783Z,936.01
2023-08-14T10:51:41.706Z,936.02
2023-08-14T10:52:41.727Z,936.01
2023-08-14T10:53:41.689Z,935.97
2023-08-14T10:54:41.668Z,935.96
2023-08-14T10:55:41.662Z,935.98
2023-08-14T10:56:41.661Z,935.95
2023-08-14T10:57:41.660Z,935.98
2023-08-14T10:58:41.664Z,936.00
2023-08-14T10:59:41.655Z,935.99
2023-08-14T11:00:41.632Z,936.01
2023-08-14T11:01:41.606Z,936.01
2023-08-14T11:02:41.601Z,936.05
2023-08-14T11:03:41.570Z,936.06
2023-08-14T11:04:41.654Z,936.08
2023-08-14T11:05:41.598Z,936.07
2023-08-14T11:06:41.524Z,936.07
2023-08-14T11:07:43.666Z,936.07
2023-08-14T11:08:41.514Z,936.09
2023-08-14T11:09:41.568Z,936.08
2023-08-14T11:10:41.554Z,936.22
2023-08-14T11:11:41.476Z,936.14
2023-08-14T11:12:41.481Z,936.13
2023-08-14T11:13:41.431Z,936.14
2023-08-14T11:14:41.460Z,936.15
2023-08-14T11:15:41.433Z,936.18
2023-08-14T11:16:41.541Z,936.19
2023-08-14T11:17:41.445Z,936.21
2023-08-14T11:18:41.398Z,936.22
2023-08-14T11:19:41.372Z,936.24
2023-08-14T11:20:41.399Z,936.26
2023-08-14T11:21:41.374Z,936.29
2023-08-14T11:22:41.393Z,936.30
2023-08-14T11:23:41.313Z,936.30
2023-08-14T11:24:41.362Z,936.31
2023-08-14T11:25:41.306Z,936.32
2023-08-14T11:26:41.338Z,936.33
2023-08-14T11:27:41.300Z,936.36
2023-08-14T11:28:41.376Z,936.39
2023-08-14T11:30:41.266Z,936.39
2023-08-14T11:31:48.204Z,936.38
2023-08-14T11:32:41.332Z,936.37
2023-08-14T11:33:41.236Z,936.40
2023-08-14T11:34:41.262Z,936.37
2023-08-14T11:35:41.179Z,936.36
2023-08-14T11:36:41.235Z,936.35
2023-08-14T11:37:41.172Z,936.39
2023-08-14T11:38:41.212Z,936.41
2023-08-14T11:39:49.435Z,936.45
2023-08-14T11:40:41.162Z,936.45
2023-08-14T11:41:41.106Z,936.43
2023-08-14T11:42:41.157Z,936.47
2023-08-14T11:43:46.470Z,936.48
2023-08-14T11:44:41.107Z,936.47
2023-08-14T11:45:41.130Z,936.45
2023-08-14T11:46:41.081Z,936.44
2023-08-14T11:47:41.206Z,936.48
2023-08-14T11:49:05.072Z,936.47
2023-08-14T11:49:41.038Z,936.48
2023-08-14T11:50:41.016Z,936.51
2023-08-14T11:51:41.073Z,936.50
2023-08-14T11:52:41.008Z,936.52
2023-08-14T11:53:41.032Z,936.50
2023-08-14T11:54:40.965Z,936.52
2023-08-14T11:55:40.985Z,936.53
2023-08-14T11:56:40.970Z,936.51
2023-08-14T11:57:40.983Z,936.52
2023-08-14T11:58:42.095Z,936.55
2023-08-14T11:59:41.638Z,936.54
2023-08-14T12:00:40.910Z,936.58
2023-08-14T12:01:40.980Z,936.59
2023-08-14T12:02:40.946Z,936.57
2023-08-14T12:03:40.990Z,936.59
2023-08-14T12:04:40.884Z,936.62
2023-08-14T12:05:41.952Z,936.63
2023-08-14T12:06:40.872Z,936.60
2023-08-14T12:07:40.869Z,936.60
2023-08-14T12:08:40.806Z,936.64
2023-08-14T12:09:40.857Z,936.66
2023-08-14T12:10:40.827Z,936.61
2023-08-14T12:11:40.796Z,936.59
2023-08-14T12:12:51.451Z,936.61
2023-08-14T12:13:40.813Z,936.63
2023-08-14T12:14:40.795Z,936.66
2023-08-14T12:15:40.813Z,936.65
2023-08-14T12:16:41.751Z,936.68
2023-08-14T12:17:40.831Z,936.66
2023-08-14T12:18:40.727Z,936.71
2023-08-14T12:19:40.748Z,936.73
2023-08-14T12:20:40.699Z,936.73
2023-08-14T12:21:40.691Z,936.76
2023-08-14T12:22:42.750Z,936.74
2023-08-14T12:23:40.673Z,936.71
2023-08-14T12:24:41.632Z,936.71
2023-08-14T12:25:40.645Z,936.69
2023-08-14T12:26:40.646Z,936.70
2023-08-14T12:27:40.712Z,936.73
2023-08-14T12:28:40.583Z,936.75
2023-08-14T12:29:40.693Z,936.78